Time;durP1;ratioP1;P1;durP2;ratioP2;P2;SDS_P1;SDS_P2;PMS_P1;PMS_P2;Temp;Humidity;BMP_temperature;BMP_pressure;BME280_temperature;BME280_humidity;BME280_pressure;Samples;Min_cycle;Max_cycle;Signal;HPM_P1;HPM_P2
2022/08/25 00:00:44;;;;;;;;;;;;;;;29.62;70.71;100533.28;5059991;28;71181;-36
2022/08/25 00:03:16;;;;;;;;;;;;;;;29.62;71.33;100532.47;5060828;28;67274;-34
2022/08/25 00:05:50;;;;;;;;;;;;;;;29.66;71.73;100544.50;5059750;28;69624;-34
2022/08/25 00:08:22;;;;;;;;;;;;;;;29.70;71.79;100551.13;5059087;28;67318;-35
2022/08/25 00:10:54;;;;;;;;;;;;;;;29.72;71.90;100573.34;5056864;28;70707;-37
2022/08/25 00:13:32;;;;;;;;;;;;;;;29.73;72.36;100583.13;5059682;28;66320;-36
2022/08/25 00:16:04;;;;;;;;;;;;;;;29.77;71.55;100592.44;5058305;28;70434;-37
2022/08/25 00:18:37;;;;;;;;;;;;;;;29.79;71.79;100603.88;5056447;28;67094;-35
2022/08/25 00:21:11;;;;;;;;;;;;;;;29.84;72.21;100609.47;5057799;28;69820;-36
2022/08/25 00:23:44;;;;;;;;;;;;;;;29.86;71.77;100597.59;5053239;28;66717;-35
2022/08/25 00:26:16;;;;;;;;;;;;;;;29.89;71.74;100597.16;5058511;28;69760;-36
2022/08/25 00:28:48;;;;;;;;;;;;;;;29.89;72.09;100597.97;5061373;28;66647;-35
2022/08/25 00:31:24;;;;;;;;;;;;;;;29.89;72.49;100599.84;5051713;28;70691;-35
2022/08/25 00:34:11;;;;;;;;;;;;;;;29.89;72.40;100603.38;5061449;28;66865;-34
2022/08/25 00:36:43;;;;;;;;;;;;;;;29.87;72.81;100610.91;5078001;28;70764;-35
2022/08/25 00:39:15;;;;;;;;;;;;;;;29.89;73.11;100614.19;5062690;28;67442;-35
2022/08/25 00:41:48;;;;;;;;;;;;;;;29.91;73.13;100608.56;5061148;28;70112;-35
2022/08/25 00:44:20;;;;;;;;;;;;;;;29.99;70.82;100600.19;5056608;28;66664;-36
2022/08/25 00:46:55;;;;;;;;;;;;;;;30.07;70.30;100602.63;5039584;28;70575;-35
2022/08/25 00:49:50;;;;;;;;;;;;;;;30.15;70.77;100610.47;5062980;28;67437;-35
2022/08/25 00:52:27;;;;;;;;;;;;;;;30.24;69.72;100622.69;5058838;28;71118;-35
2022/08/25 00:55:11;;;;;;;;;;;;;;;30.32;69.30;100624.28;5062316;28;67258;-35
2022/08/25 00:57:51;;;;;;;;;;;;;;;30.40;69.14;100636.69;5061693;28;71277;-34
2022/08/25 01:00:43;;;;;;;;;;;;;;;30.46;69.04;100652.03;5062253;28;66804;-35
2022/08/25 01:03:17;;;;;;;;;;;;;;;30.52;67.95;100653.84;5058084;28;70199;-36
2022/08/25 01:05:49;;;;;;;;;;;;;;;30.56;68.62;100651.50;5055244;28;66576;-34
2022/08/25 01:08:26;;;;;;;;;;;;;;;30.61;68.38;100666.03;5061875;28;71463;-34
2022/08/25 01:11:02;;;;;;;;;;;;;;;30.66;68.99;100668.91;5061052;28;67274;-35
2022/08/25 01:13:44;;;;;;;;;;;;;;;30.69;67.79;100668.44;5061587;28;70637;-36
2022/08/25 01:16:16;;;;;;;;;;;;;;;30.73;68.85;100669.69;5062799;28;66640;-35
2022/08/25 01:18:55;;;;;;;;;;;;;;;30.77;68.79;100671.94;5062767;28;70550;-35
2022/08/25 01:21:27;;;;;;;;;;;;;;;30.80;68.73;100674.22;5061397;28;66042;-36
2022/08/25 01:24:00;;;;;;;;;;;;;;;30.84;68.18;100683.53;5060816;28;69914;-34
2022/08/25 01:26:33;;;;;;;;;;;;;;;30.87;68.33;100689.34;5060287;28;66227;-34
2022/08/25 01:29:24;;;;;;;;;;;;;;;30.91;67.90;100684.31;5062892;28;70867;-35
2022/08/25 01:31:57;;;;;;;;;;;;;;;30.94;67.45;100681.13;5062418;28;67210;-34
2022/08/25 01:34:40;;;;;;;;;;;;;;;30.96;67.93;100679.03;5063733;28;71220;-35
2022/08/25 01:37:14;;;;;;;;;;;;;;;30.99;68.05;100694.00;5081462;27;66896;-34
2022/08/25 01:39:48;;;;;;;;;;;;;;;31.02;67.58;100688.16;5083265;27;43652;-34
2022/08/25 01:42:52;;;;;;;;;;;;;;;31.03;67.51;100685.19;5082303;27;66788;-34
2022/08/25 01:45:25;;;;;;;;;;;;;;;31.07;67.18;100681.00;5039690;28;70921;-35
2022/08/25 01:47:57;;;;;;;;;;;;;;;31.09;67.52;100684.31;5081805;28;67296;-36
2022/08/25 01:50:30;;;;;;;;;;;;;;;31.10;67.78;100683.25;5064830;28;71368;-34
2022/08/25 01:53:14;;;;;;;;;;;;;;;31.13;67.22;100677.38;5081220;28;66328;-34
2022/08/25 01:55:52;;;;;;;;;;;;;;;31.16;67.39;100681.50;5062876;28;70943;-35
2022/08/25 01:58:25;;;;;;;;;;;;;;;31.19;67.14;100683.75;5081684;28;67284;-35
2022/08/25 02:01:00;;;;;;;;;;;;;;;31.21;67.19;100681.66;5083062;28;71043;-34
2022/08/25 02:03:32;;;;;;;;;;;;;;;31.24;66.62;100680.38;5083355;28;66414;-34
2022/08/25 02:06:04;;;;;;;;;;;;;;;31.26;66.88;100683.66;5081442;28;69810;-35
2022/08/25 02:08:37;;;;;;;;;;;;;;;31.28;66.82;100676.97;5083567;27;65491;-35
2022/08/25 02:11:13;;;;;;;;;;;;;;;31.30;66.57;100682.19;5082518;28;70979;-34
2022/08/25 02:13:44;;;;;;;;;;;;;;;31.32;66.93;100680.06;5079754;27;66575;-35
2022/08/25 02:16:21;;;;;;;;;;;;;;;31.34;66.44;100684.22;5082074;28;70720;-35
2022/08/25 02:18:54;;;;;;;;;;;;;;;31.37;66.58;100674.81;5081624;27;66983;-34
2022/08/25 02:21:26;;;;;;;;;;;;;;;31.40;66.62;100668.94;5081119;27;70894;-34
2022/08/25 02:23:58;;;;;;;;;;;;;;;31.42;66.62;100666.00;5081958;28;66625;-35
2022/08/25 02:26:30;;;;;;;;;;;;;;;31.44;66.49;100659.28;5070130;27;70550;-35
2022/08/25 02:29:03;;;;;;;;;;;;;;;31.46;66.15;100657.19;5063028;28;67273;-35
2022/08/25 02:31:35;;;;;;;;;;;;;;;31.50;66.20;100668.38;5074825;27;70779;-35
2022/08/25 02:34:08;;;;;;;;;;;;;;;31.51;66.39;100664.59;5081666;28;67223;-35
2022/08/25 02:36:40;;;;;;;;;;;;;;;31.53;66.39;100668.75;5062029;28;71272;-35
2022/08/25 02:39:12;;;;;;;;;;;;;;;31.57;66.07;100671.84;5059666;28;67050;-35
2022/08/25 02:41:44;;;;;;;;;;;;;;;31.59;66.25;100684.13;5062134;28;71029;-35
2022/08/25 02:44:16;;;;;;;;;;;;;;;31.61;66.17;100684.69;5066597;28;66580;-35
2022/08/25 02:46:49;;;;;;;;;;;;;;;31.65;65.88;100684.22;5071279;28;70394;-35
2022/08/25 02:49:20;;;;;;;;;;;;;;;31.67;66.51;100684.84;5050312;28;67108;-34
2022/08/25 02:51:53;;;;;;;;;;;;;;;31.68;66.16;100676.47;5061376;28;70962;-33
2022/08/25 02:54:26;;;;;;;;;;;;;;;31.71;66.51;100681.44;5060942;28;66732;-35
2022/08/25 02:56:58;;;;;;;;;;;;;;;31.74;66.61;100674.72;5060303;28;70238;-35
2022/08/25 02:59:30;;;;;;;;;;;;;;;31.76;66.10;100678.88;5060385;28;65972;-35
2022/08/25 03:02:03;;;;;;;;;;;;;;;31.79;66.59;100688.44;5061397;28;71879;-36
2022/08/25 03:04:35;;;;;;;;;;;;;;;31.81;66.09;100680.88;5061494;28;66667;-35
2022/08/25 03:07:07;;;;;;;;;;;;;;;31.82;66.52;100683.38;5049934;28;70466;-34
2022/08/25 03:09:41;;;;;;;;;;;;;;;31.87;66.30;100690.78;5061521;28;67238;-35
2022/08/25 03:12:13;;;;;;;;;;;;;;;31.88;66.46;100681.59;5061092;28;70806;-35
2022/08/25 03:14:45;;;;;;;;;;;;;;;31.90;66.36;100679.50;5061416;28;66723;-35
2022/08/25 03:17:17;;;;;;;;;;;;;;;31.93;66.32;100672.78;5061516;28;70906;-35
2022/08/25 03:19:49;;;;;;;;;;;;;;;31.95;66.45;100682.34;5058679;28;67461;-35
2022/08/25 03:22:21;;;;;;;;;;;;;;;31.97;66.46;100666.66;5060574;28;70912;-36
2022/08/25 03:26:52;;;;;;;;;;;;;;;32.00;66.27;100665.38;5060774;28;66972;-35
2022/08/25 03:27:44;;;;;;;;;;;;;;;32.02;66.09;100661.38;5060807;28;70626;-35
2022/08/25 03:30:17;;;;;;;;;;;;;;;32.03;66.06;100668.44;5061733;28;67107;-35
2022/08/25 03:32:49;;;;;;;;;;;;;;;32.06;66.10;100667.16;5059268;28;71021;-35
2022/08/25 03:35:21;;;;;;;;;;;;;;;32.08;65.80;100665.03;5060930;28;67375;-35
2022/08/25 03:37:57;;;;;;;;;;;;;;;32.11;65.38;100663.75;5048822;28;71411;-35
2022/08/25 03:40:29;;;;;;;;;;;;;;;32.13;65.39;100661.63;5061411;28;66233;-35
2022/08/25 03:43:01;;;;;;;;;;;;;;;32.16;65.52;100655.75;5061056;28;70682;-35
2022/08/25 03:45:38;;;;;;;;;;;;;;;32.18;65.26;100659.03;5060206;28;66508;-35
2022/08/25 03:48:11;;;;;;;;;;;;;;;32.20;65.08;100652.31;5060475;28;70563;-34
2022/08/25 03:50:46;;;;;;;;;;;;;;;32.22;65.26;100644.75;5061165;28;66492;-35
2022/08/25 03:53:21;;;;;;;;;;;;;;;32.24;65.35;100648.06;5059978;28;70738;-35
2022/08/25 03:55:53;;;;;;;;;;;;;;;32.28;65.34;100648.41;5050878;28;66141;-34
2022/08/25 03:58:25;;;;;;;;;;;;;;;32.30;65.19;100640.88;5059246;28;70704;-35
2022/08/25 04:00:59;;;;;;;;;;;;;;;32.32;65.57;100627.06;5061267;28;67185;-34
2022/08/25 04:03:31;;;;;;;;;;;;;;;32.35;65.23;100637.47;5061932;28;69137;-36
2022/08/25 04:06:05;;;;;;;;;;;;;;;32.37;65.33;100632.59;5048725;28;67477;-35
2022/08/25 04:08:38;;;;;;;;;;;;;;;32.38;64.92;100637.81;5063566;28;70653;-34
2022/08/25 04:11:12;;;;;;;;;;;;;;;32.40;65.41;100646.56;5060951;28;66496;-37
2022/08/25 04:13:45;;;;;;;;;;;;;;;32.43;65.34;100635.22;5060563;28;70277;-36
2022/08/25 04:16:18;;;;;;;;;;;;;;;32.45;65.49;100633.06;5061088;28;68527;-36
2022/08/25 04:18:51;;;;;;;;;;;;;;;32.48;65.35;100629.94;5062303;28;71296;-35
2022/08/25 04:21:24;;;;;;;;;;;;;;;32.51;65.45;100638.66;5059910;28;66136;-35
2022/08/25 04:23:56;;;;;;;;;;;;;;;32.52;65.05;100633.00;5062154;28;70780;-35
2022/08/25 04:26:31;;;;;;;;;;;;;;;32.54;65.13;100632.75;5063343;28;67065;-34
2022/08/25 04:29:04;;;;;;;;;;;;;;;32.55;65.03;100631.69;5063143;28;70239;-35
2022/08/25 04:31:38;;;;;;;;;;;;;;;32.56;64.95;100633.34;5062612;28;67415;-34
2022/08/25 04:34:10;;;;;;;;;;;;;;;32.56;65.06;100634.16;5061861;28;70285;-35
2022/08/25 04:37:01;;;;;;;;;;;;;;;32.57;64.93;100643.97;5062069;28;67184;-35
2022/08/25 04:39:33;;;;;;;;;;;;;;;32.57;64.77;100632.25;5052422;28;71246;-35
2022/08/25 04:42:05;;;;;;;;;;;;;;;32.58;64.61;100634.75;5062219;28;66482;-35
2022/08/25 04:44:36;;;;;;;;;;;;;;;32.59;64.72;100636.41;5063362;28;70888;-36
2022/08/25 04:47:09;;;;;;;;;;;;;;;32.60;64.59;100624.47;5062617;28;66394;-34
2022/08/25 04:49:42;;;;;;;;;;;;;;;32.60;64.29;100623.66;5062871;28;70148;-34
2022/08/25 04:52:14;;;;;;;;;;;;;;;32.61;64.32;100614.44;5061196;28;66601;-35
2022/08/25 04:54:46;;;;;;;;;;;;;;;32.61;64.48;100606.31;5063817;28;70633;-38
2022/08/25 04:57:18;;;;;;;;;;;;;;;32.62;64.25;100605.22;5045553;28;67003;-35
2022/08/25 04:59:50;;;;;;;;;;;;;;;32.61;64.05;100604.41;5059390;28;70738;-35
2022/08/25 05:02:24;;;;;;;;;;;;;;;32.62;64.49;100594.34;5063358;28;67074;-35
2022/08/25 05:04:56;;;;;;;;;;;;;;;32.64;64.45;100587.63;5063030;28;70812;-36
2022/08/25 05:07:28;;;;;;;;;;;;;;;32.66;64.08;100579.25;5063564;28;66304;-35
2022/08/25 05:10:00;;;;;;;;;;;;;;;32.68;63.98;100566.25;5062046;28;70849;-35
2022/08/25 05:12:33;;;;;;;;;;;;;;;32.68;64.53;100550.78;5060342;28;67133;-35
2022/08/25 05:15:49;;;;;;;;;;;;;;;32.67;64.90;100537.44;5061809;28;70862;-35
2022/08/25 05:17:57;;;;;;;;;;;;;;;32.71;64.79;100530.47;5060275;28;67248;-35
2022/08/25 05:20:29;;;;;;;;;;;;;;;32.73;64.60;100522.88;5061163;28;70741;-36
2022/08/25 05:23:02;;;;;;;;;;;;;;;32.73;64.44;100525.59;5059428;28;67799;-35
2022/08/25 05:25:35;;;;;;;;;;;;;;;32.75;64.61;100512.63;5061945;28;70607;-37
2022/08/25 05:28:06;;;;;;;;;;;;;;;32.75;64.48;100512.63;5057778;28;66350;-35
2022/08/25 05:30:39;;;;;;;;;;;;;;;32.77;64.15;100512.38;5063251;28;70873;-35
2022/08/25 05:33:11;;;;;;;;;;;;;;;32.77;64.34;100493.38;5070800;28;67361;-35
2022/08/25 05:35:43;;;;;;;;;;;;;;;32.77;64.23;100491.47;5073113;27;70270;-35
2022/08/25 05:38:15;;;;;;;;;;;;;;;32.78;64.06;100476.81;5082644;28;66690;-35
2022/08/25 05:40:51;;;;;;;;;;;;;;;32.81;64.13;100479.03;5082356;28;70834;-35
2022/08/25 05:43:23;;;;;;;;;;;;;;;32.83;63.97;100468.78;5081506;28;66524;-35
2022/08/25 05:45:56;;;;;;;;;;;;;;;32.85;64.12;100463.09;5071983;27;70528;-35
2022/08/25 05:48:29;;;;;;;;;;;;;;;32.88;63.85;100452.56;5081867;27;66994;-37
2022/08/25 05:51:02;;;;;;;;;;;;;;;32.89;63.94;100451.50;5082786;28;70064;-35
2022/08/25 05:53:35;;;;;;;;;;;;;;;32.92;63.56;100456.44;5081182;27;66489;-34
2022/08/25 05:56:07;;;;;;;;;;;;;;;32.96;63.59;100450.50;5053788;28;70607;-35
2022/08/25 05:58:40;;;;;;;;;;;;;;;32.98;63.53;100448.38;5087877;27;67172;-35
2022/08/25 06:04:33;;;;;;;;;;;;;;;33.02;63.29;100425.13;5011907;28;67162;-35
2022/08/25 06:07:10;;;;;;;;;;;;;;;33.05;63.74;100424.63;5013026;28;70661;-35
2022/08/25 06:09:44;;;;;;;;;;;;;;;33.06;63.39;100420.84;5055222;28;67273;-35
2022/08/25 06:12:20;;;;;;;;;;;;;;;33.06;63.79;100410.78;5082450;28;71344;-34
2022/08/25 06:14:52;;;;;;;;;;;;;;;33.10;63.36;100408.41;5081945;28;66895;-35
2022/08/25 06:17:23;;;;;;;;;;;;;;;33.09;63.36;100412.19;5081671;27;70937;-34
2022/08/25 06:19:55;;;;;;;;;;;;;;;33.10;63.23;100401.09;5082153;27;67234;-34
2022/08/25 06:22:27;;;;;;;;;;;;;;;33.11;63.17;100405.44;5051095;28;70744;-34
2022/08/25 06:24:59;;;;;;;;;;;;;;;33.13;63.36;100400.59;5080447;27;66343;-35
2022/08/25 06:27:31;;;;;;;;;;;;;;;33.15;63.03;100392.16;5082381;28;69986;-35
2022/08/25 06:30:05;;;;;;;;;;;;;;;33.15;62.91;100384.88;5063950;28;67158;-34
2022/08/25 06:32:39;;;;;;;;;;;;;;;33.17;63.09;100379.16;5082312;27;70029;-34
2022/08/25 06:35:12;;;;;;;;;;;;;;;33.19;62.90;100377.03;5081100;28;67470;-34
2022/08/25 06:37:45;;;;;;;;;;;;;;;33.21;62.61;100371.31;5080727;28;70759;-34
2022/08/25 06:40:17;;;;;;;;;;;;;;;33.22;62.61;100371.09;5052030;28;66674;-35
2022/08/25 06:42:49;;;;;;;;;;;;;;;33.24;62.75;100371.69;5081723;28;70665;-35
2022/08/25 06:45:21;;;;;;;;;;;;;;;33.26;62.60;100372.22;5080485;27;65969;-35
2022/08/25 06:47:53;;;;;;;;;;;;;;;33.27;62.76;100379.34;5081936;27;71130;-35
2022/08/25 06:50:25;;;;;;;;;;;;;;;33.27;62.76;100375.78;5081395;27;66467;-35
2022/08/25 06:52:58;;;;;;;;;;;;;;;33.28;62.32;100375.53;5082093;28;71183;-36
2022/08/25 06:55:29;;;;;;;;;;;;;;;33.29;62.26;100363.59;5081914;27;67980;-35
2022/08/25 06:58:02;;;;;;;;;;;;;;;33.30;62.38;100361.69;5080748;27;70901;-35
2022/08/25 07:00:34;;;;;;;;;;;;;;;33.31;62.26;100358.72;5082778;27;66453;-34
2022/08/25 07:03:06;;;;;;;;;;;;;;;33.32;62.37;100371.25;5081221;27;70550;-35
2022/08/25 07:05:39;;;;;;;;;;;;;;;33.34;62.49;100388.13;5079924;28;67291;-35
2022/08/25 07:08:13;;;;;;;;;;;;;;;33.36;62.65;100405.00;5081482;28;70745;-36
2022/08/25 07:10:45;;;;;;;;;;;;;;;33.37;62.09;100412.09;5081434;27;66321;-34
2022/08/25 07:13:17;;;;;;;;;;;;;;;33.38;62.20;100430.06;5081135;28;70939;-33
2022/08/25 07:15:53;;;;;;;;;;;;;;;33.39;62.27;100433.59;5081986;27;66462;-34
2022/08/25 07:18:25;;;;;;;;;;;;;;;33.38;62.30;100424.63;5079317;28;70033;-35
2022/08/25 07:20:57;;;;;;;;;;;;;;;33.38;62.46;100411.03;5081290;28;67681;-35
2022/08/25 07:23:29;;;;;;;;;;;;;;;33.38;61.90;100408.31;5061563;28;70079;-35
2022/08/25 07:26:30;;;;;;;;;;;;;;;33.37;61.93;100394.97;5080216;28;67476;-35
2022/08/25 07:29:11;;;;;;;;;;;;;;;33.36;61.97;100399.56;5070071;27;70819;-35
2022/08/25 07:31:42;;;;;;;;;;;;;;;33.03;63.04;100422.16;5080817;28;66223;-33
2022/08/25 07:37:09;;;;;;;;;;;;;;;32.74;64.39;100434.94;5078781;28;66528;-36
2022/08/25 07:39:44;;;;;;;;;;;;;;;32.68;65.05;100454.88;5075847;28;69667;-37
2022/08/25 07:42:16;;;;;;;;;;;;;;;32.60;65.27;100455.31;5054936;28;67213;-37
2022/08/25 07:44:48;;;;;;;;;;;;;;;32.54;65.54;100459.81;5078233;28;71003;-35
2022/08/25 07:47:20;;;;;;;;;;;;;;;32.46;65.38;100450.16;5079142;27;66474;-34
2022/08/25 07:49:52;;;;;;;;;;;;;;;32.36;65.61;100444.47;5080660;28;70259;-34
2022/08/25 07:52:25;;;;;;;;;;;;;;;32.25;64.19;100445.34;5080491;28;66741;-34
2022/08/25 07:54:57;;;;;;;;;;;;;;;32.21;65.20;100446.91;5083856;27;71146;-34
2022/08/25 07:57:29;;;;;;;;;;;;;;;32.10;64.52;100455.91;5059839;28;67062;-35
2022/08/25 08:00:01;;;;;;;;;;;;;;;31.84;65.46;100436.28;5061698;28;70483;-33
2022/08/25 08:02:41;;;;;;;;;;;;;;;32.03;64.75;100464.97;5079381;27;67143;-33
2022/08/25 08:05:13;;;;;;;;;;;;;;;32.02;65.38;100466.03;5076677;27;69931;-33
2022/08/25 08:07:48;;;;;;;;;;;;;;;31.97;66.10;100468.63;5074275;28;66206;-34
2022/08/25 08:10:21;;;;;;;;;;;;;;;31.92;66.78;100483.97;5077442;28;70157;-35
2022/08/25 08:13:13;;;;;;;;;;;;;;;31.85;67.89;100497.63;5078302;28;66560;-34
2022/08/25 08:15:47;;;;;;;;;;;;;;;31.76;67.78;100490.88;5058508;28;69921;-34
2022/08/25 08:18:20;;;;;;;;;;;;;;;31.79;68.01;100493.16;5054480;28;67164;-32
2022/08/25 08:20:52;;;;;;;;;;;;;;;31.75;67.59;100489.25;5062263;28;70118;-34
2022/08/25 08:23:26;;;;;;;;;;;;;;;31.73;67.92;100494.06;5077374;28;66204;-33
2022/08/25 08:25:58;;;;;;;;;;;;;;;31.72;68.10;100478.88;5079237;28;70173;-34
2022/08/25 08:28:30;;;;;;;;;;;;;;;31.70;67.98;100478.28;5060624;28;67052;-34
2022/08/25 08:31:02;;;;;;;;;;;;;;;31.66;67.93;100468.97;5078873;27;71052;-35
2022/08/25 08:33:39;;;;;;;;;;;;;;;31.66;68.14;100471.69;5080365;27;67372;-34
2022/08/25 08:36:12;;;;;;;;;;;;;;;31.63;68.40;100478.41;5078359;28;70703;-33
2022/08/25 08:38:45;;;;;;;;;;;;;;;31.61;68.12;100475.09;5076750;28;67435;-33
2022/08/25 08:44:50;;;;;;;;;;;;;;;31.66;69.02;100482.53;5071227;27;67528;-35
2022/08/25 08:47:47;;;;;;;;;;;;;;;31.70;69.30;100483.69;5057108;28;70614;-35
2022/08/25 08:50:19;;;;;;;;;;;;;;;31.72;69.19;100481.59;5079320;27;67129;-34
2022/08/25 08:53:01;;;;;;;;;;;;;;;31.74;69.09;100474.06;5083463;27;70756;-35
2022/08/25 08:55:42;;;;;;;;;;;;;;;31.76;69.05;100477.34;5083926;27;67105;-35
2022/08/25 08:58:41;;;;;;;;;;;;;;;31.80;68.71;100470.38;5069987;27;70654;-35
2022/08/25 09:01:17;;;;;;;;;;;;;;;31.79;69.01;100453.28;5082644;28;66823;-35
2022/08/25 09:04:12;;;;;;;;;;;;;;;31.82;69.06;100438.44;5083461;28;69834;-36
2022/08/25 09:06:46;;;;;;;;;;;;;;;31.82;68.99;100446.56;5074986;27;67233;-34
2022/08/25 09:09:29;;;;;;;;;;;;;;;31.81;69.15;100455.75;5083398;27;69943;-36
2022/08/25 09:12:11;;;;;;;;;;;;;;;31.84;69.28;100441.72;5082756;28;66247;-36
2022/08/25 09:14:52;;;;;;;;;;;;;;;31.83;69.28;100446.31;5083098;28;71256;-36
2022/08/25 09:17:26;;;;;;;;;;;;;;;31.82;69.17;100450.09;5082410;27;66954;-35
2022/08/25 09:19:59;;;;;;;;;;;;;;;31.84;69.56;100452.56;5075744;27;70835;-36
2022/08/25 09:22:42;;;;;;;;;;;;;;;31.86;69.20;100455.88;5079026;28;67377;-34
2022/08/25 09:25:29;;;;;;;;;;;;;;;31.85;69.39;100465.09;5062552;28;70278;-35
2022/08/25 09:28:21;;;;;;;;;;;;;;;31.85;69.16;100459.66;5059299;28;67910;-36
2022/08/25 09:30:53;;;;;;;;;;;;;;;31.85;69.05;100467.78;5082546;27;71009;-34
2022/08/25 09:33:26;;;;;;;;;;;;;;;31.85;69.22;100469.69;5080129;28;67231;-35
2022/08/25 09:35:58;;;;;;;;;;;;;;;31.86;69.32;100465.91;5081609;27;70374;-37
2022/08/25 09:38:35;;;;;;;;;;;;;;;31.85;69.45;100473.22;5082171;27;67078;-35
2022/08/25 09:41:07;;;;;;;;;;;;;;;31.84;69.45;100468.84;5070115;27;70782;-36
2022/08/25 09:43:43;;;;;;;;;;;;;;;31.84;68.97;100474.25;5081847;28;66610;-34
2022/08/25 09:46:22;;;;;;;;;;;;;;;31.85;69.04;100488.69;5081011;28;71079;-36
2022/08/25 09:49:15;;;;;;;;;;;;;;;31.85;69.20;100492.22;5081369;28;66413;-34
2022/08/25 09:51:47;;;;;;;;;;;;;;;31.82;69.32;100498.09;5079987;28;71027;-37
2022/08/25 09:54:24;;;;;;;;;;;;;;;31.84;69.64;100506.81;5079424;28;66340;-35
2022/08/25 09:57:31;;;;;;;;;;;;;;;31.81;69.78;100512.72;5081637;28;70201;-35
2022/08/25 10:00:12;;;;;;;;;;;;;;;31.80;69.38;100517.31;5079997;28;66661;-36
2022/08/25 10:03:02;;;;;;;;;;;;;;;31.81;69.00;100515.41;5062869;28;70196;-36
2022/08/25 10:05:38;;;;;;;;;;;;;;;31.78;68.73;100518.59;5081125;28;66904;-35
2022/08/25 10:08:13;;;;;;;;;;;;;;;31.75;68.92;100527.22;5046420;28;69602;-36
2022/08/25 10:10:56;;;;;;;;;;;;;;;31.73;68.59;100529.31;5081281;27;67270;-36
2022/08/25 10:13:39;;;;;;;;;;;;;;;31.72;68.84;100538.53;5081304;28;70829;-35
2022/08/25 10:16:22;;;;;;;;;;;;;;;31.71;69.13;100539.59;5078445;28;67739;-36
2022/08/25 10:19:09;;;;;;;;;;;;;;;31.72;69.02;100552.09;5078883;27;70156;-35
2022/08/25 10:21:42;;;;;;;;;;;;;;;31.71;68.98;100574.88;5079296;28;66623;-35
2022/08/25 10:24:14;;;;;;;;;;;;;;;31.71;69.22;100583.00;5080993;28;70150;-36
2022/08/25 10:26:46;;;;;;;;;;;;;;;31.69;68.98;100585.09;5079592;28;65846;-36
2022/08/25 10:29:33;;;;;;;;;;;;;;;31.69;69.91;100596.78;5079947;27;69967;-36
2022/08/25 10:32:05;;;;;;;;;;;;;;;31.71;70.03;100610.13;5075337;27;66407;-37
2022/08/25 10:34:49;;;;;;;;;;;;;;;31.68;70.33;100605.97;5069170;28;70806;-38
2022/08/25 10:37:21;;;;;;;;;;;;;;;31.68;70.56;100605.13;5080505;27;66403;-35
2022/08/25 10:40:02;;;;;;;;;;;;;;;31.67;70.33;100603.47;5082612;27;71029;-35
2022/08/25 10:43:02;;;;;;;;;;;;;;;31.69;71.29;100613.03;5064516;28;67095;-36
2022/08/25 10:45:44;;;;;;;;;;;;;;;31.68;71.33;100622.25;5081496;27;71251;-35
2022/08/25 10:48:16;;;;;;;;;;;;;;;31.63;69.81;100613.16;5081653;27;66390;-36
2022/08/25 10:50:51;;;;;;;;;;;;;;;31.58;69.25;100625.50;5082258;27;70018;-34
2022/08/25 10:53:26;;;;;;;;;;;;;;;31.55;69.08;100639.53;5080749;28;67320;-34
2022/08/25 10:56:04;;;;;;;;;;;;;;;31.50;68.40;100647.53;5063491;28;69982;-34
2022/08/25 10:58:47;;;;;;;;;;;;;;;31.43;67.52;100646.81;5079729;27;67238;-34
2022/08/25 11:01:34;;;;;;;;;;;;;;;31.43;67.47;100652.22;5067219;27;70956;-35
2022/08/25 11:04:18;;;;;;;;;;;;;;;31.40;67.12;100652.69;5080774;28;67186;-34
2022/08/25 11:07:00;;;;;;;;;;;;;;;31.37;66.96;100653.97;5081974;27;70690;-38
2022/08/25 11:09:38;;;;;;;;;;;;;;;31.27;66.91;100663.66;5080477;27;66676;-36
2022/08/25 11:12:33;;;;;;;;;;;;;;;31.27;66.74;100669.09;5062152;28;70089;-36
2022/08/25 11:15:10;;;;;;;;;;;;;;;31.27;67.15;100666.38;5067716;28;67207;-36
2022/08/25 11:17:53;;;;;;;;;;;;;;;31.27;68.14;100672.63;5077294;28;70760;-34
2022/08/25 11:20:34;;;;;;;;;;;;;;;31.28;68.15;100668.03;5079029;27;66599;-35
2022/08/25 11:23:13;;;;;;;;;;;;;;;31.28;68.61;100673.44;5079321;28;71381;-36
2022/08/25 11:25:50;;;;;;;;;;;;;;;31.28;68.76;100671.56;5042662;28;66213;-39
2022/08/25 11:28:31;;;;;;;;;;;;;;;31.26;68.80;100673.69;5079712;28;70732;-38
2022/08/25 11:31:07;;;;;;;;;;;;;;;31.27;69.51;100664.50;5080196;27;67618;-38
2022/08/25 11:33:40;;;;;;;;;;;;;;;31.25;69.52;100665.78;5029710;28;70643;-36
2022/08/25 11:36:23;;;;;;;;;;;;;;;31.23;70.01;100673.28;5036336;28;67112;-39
2022/08/25 11:39:11;;;;;;;;;;;;;;;31.22;69.76;100674.34;5064227;28;70944;-38
2022/08/25 11:42:02;;;;;;;;;;;;;;;31.20;70.04;100679.16;5036688;28;66830;-37
2022/08/25 11:45:09;;;;;;;;;;;;;;;31.20;70.58;100684.59;5078202;28;70267;-36
2022/08/25 11:47:54;;;;;;;;;;;;;;;31.15;70.65;100672.56;5022818;28;66961;-35
2022/08/25 11:50:53;;;;;;;;;;;;;;;31.18;70.18;100687.53;5076382;28;70863;-36
2022/08/25 11:53:36;;;;;;;;;;;;;;;31.15;70.83;100677.16;5059255;28;67701;-36
2022/08/25 11:56:32;;;;;;;;;;;;;;;31.12;70.79;100678.44;5078737;28;70412;-38
2022/08/25 11:59:05;;;;;;;;;;;;;;;31.14;71.38;100673.59;5078512;28;66147;-36
2022/08/25 12:01:43;;;;;;;;;;;;;;;31.14;71.62;100673.59;5071824;27;70166;-36
2022/08/25 12:04:32;;;;;;;;;;;;;;;31.13;71.43;100671.13;5065270;27;66178;-36
2022/08/25 12:07:18;;;;;;;;;;;;;;;31.12;71.75;100667.59;5056113;27;70506;-37
2022/08/25 12:09:54;;;;;;;;;;;;;;;31.10;71.70;100664.28;5076885;27;67103;-36
2022/08/25 12:12:55;;;;;;;;;;;;;;;31.08;71.54;100658.25;5081120;27;70185;-35
2022/08/25 12:15:29;;;;;;;;;;;;;;;30.97;72.60;100660.91;5079865;27;67177;-37
2022/08/25 12:18:13;;;;;;;;;;;;;;;30.98;72.87;100659.84;5067757;27;70881;-40
2022/08/25 12:20:56;;;;;;;;;;;;;;;30.99;72.69;100666.94;5078146;27;65809;-37
2022/08/25 12:23:31;;;;;;;;;;;;;;;31.01;73.82;100656.66;5082432;28;70721;-37
2022/08/25 12:26:23;;;;;;;;;;;;;;;31.01;74.07;100671.06;5082452;27;66874;-37
2022/08/25 12:29:06;;;;;;;;;;;;;;;30.97;74.36;100661.72;5079341;27;70626;-38
2022/08/25 12:31:46;;;;;;;;;;;;;;;30.88;74.19;100660.38;5071168;27;68509;-34
2022/08/25 12:34:36;;;;;;;;;;;;;;;30.64;73.86;100654.75;5077098;27;70799;-36
2022/08/25 12:37:15;;;;;;;;;;;;;;;30.48;74.59;100660.78;5078871;27;66993;-34
2022/08/25 12:39:50;;;;;;;;;;;;;;;30.32;74.87;100666.75;5078256;28;71038;-38
2022/08/25 12:42:37;;;;;;;;;;;;;;;30.31;76.15;100663.19;5078201;27;66540;-32
2022/08/25 12:45:24;;;;;;;;;;;;;;;30.42;76.57;100664.34;5077438;27;70139;-33
2022/08/25 12:48:15;;;;;;;;;;;;;;;30.50;76.60;100659.47;5073892;27;66704;-34
2022/08/25 12:50:56;;;;;;;;;;;;;;;30.57;76.77;100667.53;5058625;27;70724;-36
2022/08/25 12:53:31;;;;;;;;;;;;;;;30.64;76.63;100664.75;5078011;28;66805;-37
2022/08/25 12:56:23;;;;;;;;;;;;;;;30.68;76.16;100672.22;5074971;27;69739;-34
2022/08/25 12:59:08;;;;;;;;;;;;;;;30.72;76.50;100673.41;5077909;27;67159;-35
2022/08/25 13:01:49;;;;;;;;;;;;;;;30.75;76.54;100671.31;5059676;28;70545;-34
2022/08/25 13:04:29;;;;;;;;;;;;;;;30.78;76.32;100673.56;5076816;28;66550;-33
2022/08/25 13:07:04;;;;;;;;;;;;;;;30.79;75.97;100677.97;5078426;27;70361;-35
2022/08/25 13:09:45;;;;;;;;;;;;;;;30.84;76.12;100672.69;5077190;28;67798;-35
2022/08/25 13:12:24;;;;;;;;;;;;;;;30.84;76.23;100680.81;5078334;27;70201;-34
2022/08/25 13:14:59;;;;;;;;;;;;;;;30.83;76.15;100673.75;5072559;27;66883;-36
2022/08/25 13:17:34;;;;;;;;;;;;;;;30.78;76.53;100677.09;5078428;28;70934;-35
2022/08/25 13:20:14;;;;;;;;;;;;;;;30.81;76.47;100675.84;5078072;27;66455;-32
2022/08/25 13:22:48;;;;;;;;;;;;;;;30.83;76.26;100673.75;5079226;28;70122;-35
2022/08/25 13:25:29;;;;;;;;;;;;;;;30.86;76.89;100678.72;5075954;28;66399;-32
2022/08/25 13:28:04;;;;;;;;;;;;;;;30.84;75.46;100687.09;5078608;27;70359;-35
2022/08/25 13:30:40;;;;;;;;;;;;;;;30.85;75.84;100687.91;5076989;27;67432;-33
2022/08/25 13:33:19;;;;;;;;;;;;;;;30.86;75.57;100689.56;5076445;27;70551;-37